createdAt,value
2023-03-29T00:00:07.042Z,200.72
2023-03-29T00:01:07.050Z,202.24
2023-03-29T00:02:07.127Z,184.04
2023-03-29T00:03:07.370Z,193.65
2023-03-29T00:04:07.275Z,195.46
2023-03-29T00:05:07.268Z,197.11
2023-03-29T00:06:07.244Z,197.65
2023-03-29T00:07:07.292Z,191.52
2023-03-29T00:08:07.375Z,189.54
2023-03-29T00:09:07.309Z,185.83
2023-03-29T00:10:07.311Z,175.14
2023-03-29T00:11:07.383Z,185.91
2023-03-29T00:12:07.416Z,196.43
2023-03-29T00:13:07.438Z,202.45
2023-03-29T00:14:07.466Z,198.31
2023-03-29T00:15:07.424Z,200.25
2023-03-29T00:16:07.449Z,202.75
2023-03-29T00:17:07.482Z,203.80
2023-03-29T00:18:07.501Z,209.81
2023-03-29T00:19:07.530Z,215.63
2023-03-29T00:20:07.592Z,214.13
2023-03-29T00:21:07.604Z,211.76
2023-03-29T00:22:07.670Z,214.65
2023-03-29T00:23:07.780Z,209.64
2023-03-29T00:24:07.715Z,212.19
2023-03-29T00:25:07.745Z,214.95
2023-03-29T00:26:08.331Z,206.50
2023-03-29T00:27:07.801Z,207.97
2023-03-29T00:28:07.802Z,195.46
2023-03-29T00:29:07.807Z,190.31
2023-03-29T00:30:07.823Z,184.90
2023-03-29T00:31:07.914Z,179.31
2023-03-29T00:32:07.880Z,174.74
2023-03-29T00:33:07.905Z,180.76
2023-03-29T00:34:07.885Z,188.36
2023-03-29T00:35:07.895Z,189.97
2023-03-29T00:36:07.950Z,187.52
2023-03-29T00:37:07.918Z,195.59
2023-03-29T00:38:07.976Z,211.82
2023-03-29T00:39:08.004Z,232.62
2023-03-29T00:40:07.986Z,239.02
2023-03-29T00:41:08.007Z,237.13
2023-03-29T00:42:08.042Z,237.10
2023-03-29T00:43:08.105Z,239.00
2023-03-29T00:44:08.131Z,233.81
2023-03-29T00:45:08.162Z,232.58
2023-03-29T00:46:08.266Z,233.89
2023-03-29T00:47:08.271Z,229.41
2023-03-29T00:48:08.494Z,233.12
2023-03-29T00:49:08.370Z,232.40
2023-03-29T00:50:08.316Z,230.90
2023-03-29T00:51:09.993Z,225.14
2023-03-29T00:52:08.392Z,218.31
2023-03-29T00:53:08.398Z,212.76
2023-03-29T00:54:08.456Z,217.78
2023-03-29T00:55:08.454Z,215.91
2023-03-29T00:56:08.496Z,216.56
2023-03-29T00:57:08.584Z,216.86
2023-03-29T00:58:08.572Z,225.85
2023-03-29T00:59:08.569Z,222.67
2023-03-29T01:00:08.624Z,221.90
2023-03-29T01:01:08.676Z,223.45
2023-03-29T01:02:08.796Z,225.98
2023-03-29T01:03:08.859Z,225.62
2023-03-29T01:04:08.896Z,208.40
2023-03-29T01:05:08.821Z,209.15
2023-03-29T01:06:08.827Z,197.40
2023-03-29T01:07:08.885Z,203.25
2023-03-29T01:08:08.834Z,204.78
2023-03-29T01:09:08.907Z,200.00
2023-03-29T01:10:08.942Z,197.94
2023-03-29T01:11:09.045Z,197.17
2023-03-29T01:12:09.053Z,185.80
2023-03-29T01:13:09.145Z,188.16
2023-03-29T01:14:09.164Z,190.36
2023-03-29T01:15:09.200Z,197.29
2023-03-29T01:16:09.286Z,198.85
2023-03-29T01:17:09.338Z,197.41
2023-03-29T01:18:09.412Z,199.93
2023-03-29T01:19:09.395Z,200.83
2023-03-29T01:20:09.391Z,202.68
2023-03-29T01:21:09.409Z,204.84
2023-03-29T01:22:09.458Z,193.72
2023-03-29T01:23:09.468Z,196.69
2023-03-29T01:24:09.460Z,202.17
2023-03-29T01:25:09.472Z,201.70
2023-03-29T01:26:09.526Z,202.01
2023-03-29T01:27:09.539Z,198.17
2023-03-29T01:28:09.654Z,190.86
2023-03-29T01:29:09.649Z,202.24
2023-03-29T01:30:09.663Z,191.10
2023-03-29T01:31:09.733Z,185.47
2023-03-29T01:32:09.800Z,190.45
2023-03-29T01:33:09.790Z,189.88
2023-03-29T01:34:09.834Z,187.25
2023-03-29T01:35:09.860Z,182.75
2023-03-29T01:36:09.964Z,178.69
2023-03-29T01:37:09.966Z,170.57
2023-03-29T01:38:10.029Z,166.05
2023-03-29T01:39:10.091Z,167.43
2023-03-29T01:40:10.214Z,168.33
2023-03-29T01:41:10.190Z,165.78
2023-03-29T01:42:10.277Z,154.78
2023-03-29T01:43:10.380Z,150.42
2023-03-29T01:44:10.396Z,154.05
2023-03-29T01:45:10.459Z,152.76
2023-03-29T01:46:10.763Z,154.58
2023-03-29T01:47:10.556Z,156.64
2023-03-29T01:48:10.670Z,162.45
2023-03-29T01:49:10.743Z,162.78
2023-03-29T01:50:10.719Z,163.04
2023-03-29T01:51:10.765Z,170.57
2023-03-29T01:52:10.791Z,169.75
2023-03-29T01:53:10.920Z,181.23
2023-03-29T01:54:10.903Z,188.49
2023-03-29T01:55:10.977Z,194.37
2023-03-29T01:56:10.974Z,200.88
2023-03-29T01:57:11.056Z,199.51
2023-03-29T01:58:11.093Z,201.47
2023-03-29T01:59:11.095Z,199.70
2023-03-29T02:00:11.141Z,195.50
2023-03-29T02:01:11.232Z,194.70
2023-03-29T02:02:11.321Z,199.50
2023-03-29T02:03:11.414Z,198.50
2023-03-29T02:04:11.292Z,202.51
2023-03-29T02:05:11.286Z,205.64
2023-03-29T02:06:11.341Z,206.80
2023-03-29T02:07:11.420Z,203.53
2023-03-29T02:08:11.468Z,199.00
2023-03-29T02:09:11.474Z,198.09
2023-03-29T02:10:11.497Z,204.89
2023-03-29T02:11:11.541Z,206.63
2023-03-29T02:12:11.612Z,214.23
2023-03-29T02:13:11.704Z,217.62
2023-03-29T02:14:11.707Z,222.75
2023-03-29T02:15:11.772Z,223.84
2023-03-29T02:16:11.871Z,217.25
2023-03-29T02:17:11.827Z,215.99
2023-03-29T02:18:11.937Z,216.21
2023-03-29T02:19:11.946Z,206.54
2023-03-29T02:20:11.955Z,214.65
2023-03-29T02:21:12.007Z,217.73
2023-03-29T02:22:12.081Z,193.71
2023-03-29T02:23:12.096Z,193.63
2023-03-29T02:24:12.140Z,178.36
2023-03-29T02:25:12.147Z,186.00
2023-03-29T02:26:12.156Z,189.26
2023-03-29T02:27:12.161Z,185.13
2023-03-29T02:28:12.191Z,177.33
2023-03-29T02:29:12.115Z,177.30
2023-03-29T02:30:12.168Z,175.65
2023-03-29T02:31:12.229Z,172.79
2023-03-29T02:32:12.239Z,176.76
2023-03-29T02:33:12.260Z,173.37
2023-03-29T02:34:12.252Z,169.11
2023-03-29T02:35:12.275Z,166.57
2023-03-29T02:36:12.296Z,167.97
2023-03-29T02:37:12.316Z,201.58
2023-03-29T02:38:12.388Z,185.29
2023-03-29T02:39:12.390Z,181.09
2023-03-29T02:40:12.405Z,180.48
2023-03-29T02:41:12.445Z,178.27
2023-03-29T02:42:12.466Z,177.96
2023-03-29T02:43:12.474Z,175.59
2023-03-29T02:44:12.506Z,180.17
2023-03-29T02:45:12.533Z,181.38
2023-03-29T02:46:12.591Z,183.46
2023-03-29T02:47:12.605Z,187.85
2023-03-29T02:48:12.682Z,189.74
2023-03-29T02:49:12.757Z,189.46
2023-03-29T02:50:12.733Z,191.33
2023-03-29T02:51:12.836Z,188.78
2023-03-29T02:52:12.907Z,186.05
2023-03-29T02:53:12.917Z,189.10
2023-03-29T02:54:12.917Z,182.20
2023-03-29T02:55:12.961Z,187.96
2023-03-29T02:56:12.935Z,187.85
2023-03-29T02:57:13.042Z,188.97
2023-03-29T02:58:13.050Z,190.96
2023-03-29T02:59:13.050Z,191.31
2023-03-29T03:00:13.074Z,188.40
2023-03-29T03:01:13.117Z,190.57
2023-03-29T03:02:13.095Z,180.42
2023-03-29T03:03:13.267Z,185.20
2023-03-29T03:04:13.409Z,194.46
2023-03-29T03:05:13.141Z,182.92
2023-03-29T03:06:13.140Z,186.84
2023-03-29T03:07:13.163Z,171.05
2023-03-29T03:08:13.164Z,164.73
2023-03-29T03:09:13.191Z,155.97
2023-03-29T03:10:13.250Z,141.67
2023-03-29T03:11:13.293Z,130.27
2023-03-29T03:12:13.324Z,137.74
2023-03-29T03:13:13.393Z,147.00
2023-03-29T03:14:13.434Z,146.70
2023-03-29T03:15:13.506Z,154.29
2023-03-29T03:16:13.590Z,148.35
2023-03-29T03:17:13.537Z,136.70
2023-03-29T03:18:13.519Z,127.42
2023-03-29T03:19:13.524Z,133.26
2023-03-29T03:20:13.608Z,136.20
2023-03-29T03:21:13.616Z,120.54
2023-03-29T03:22:13.669Z,121.11
2023-03-29T03:23:13.740Z,117.42
2023-03-29T03:24:13.781Z,104.55
2023-03-29T03:25:13.853Z,123.53
2023-03-29T03:26:13.898Z,139.60
2023-03-29T03:27:13.962Z,125.86
2023-03-29T03:28:14.030Z,141.64
2023-03-29T03:29:14.035Z,153.42
2023-03-29T03:30:14.022Z,152.81
2023-03-29T03:31:14.135Z,144.97
2023-03-29T03:32:14.110Z,153.60
2023-03-29T03:33:14.136Z,132.40
2023-03-29T03:34:14.186Z,88.51
2023-03-29T03:35:14.226Z,97.59
2023-03-29T03:36:14.271Z,88.56
2023-03-29T03:37:14.282Z,131.75
2023-03-29T03:38:14.289Z,126.42
2023-03-29T03:39:14.337Z,149.06
2023-03-29T03:40:14.309Z,143.82
2023-03-29T03:41:14.313Z,143.76
2023-03-29T03:42:14.380Z,161.25
2023-03-29T03:43:14.454Z,175.38
2023-03-29T03:44:14.443Z,181.93
2023-03-29T03:45:15.422Z,196.36
2023-03-29T03:46:14.552Z,206.19
2023-03-29T03:47:14.517Z,207.13
2023-03-29T03:48:14.528Z,208.46
2023-03-29T03:49:14.528Z,207.15
2023-03-29T03:50:14.565Z,210.07
2023-03-29T03:51:14.639Z,203.13
2023-03-29T03:52:14.705Z,203.53
2023-03-29T03:53:14.746Z,215.49
2023-03-29T03:54:14.763Z,223.28
2023-03-29T03:55:14.834Z,231.71
2023-03-29T03:56:14.891Z,247.39
2023-03-29T03:57:14.938Z,250.00
2023-03-29T03:58:14.926Z,247.70
2023-03-29T03:59:14.951Z,247.02
2023-03-29T04:00:15.057Z,244.22
2023-03-29T04:01:15.123Z,251.19
2023-03-29T04:02:15.196Z,247.08
2023-03-29T04:03:15.401Z,241.24
2023-03-29T04:04:15.336Z,239.46
2023-03-29T04:05:15.362Z,241.85
2023-03-29T04:06:15.390Z,245.08
2023-03-29T04:07:15.441Z,244.78
2023-03-29T04:08:15.488Z,241.30
2023-03-29T04:09:15.510Z,238.49
2023-03-29T04:10:15.540Z,242.67
2023-03-29T04:11:15.648Z,244.58
2023-03-29T04:12:15.684Z,248.63
2023-03-29T04:13:15.706Z,249.01
2023-03-29T04:14:15.767Z,243.28
2023-03-29T04:15:15.781Z,246.63
2023-03-29T04:16:15.838Z,240.29
2023-03-29T04:17:15.844Z,240.94
2023-03-29T04:18:16.134Z,239.41
2023-03-29T04:19:15.955Z,240.82
2023-03-29T04:20:16.046Z,237.27
2023-03-29T04:21:16.085Z,233.51
2023-03-29T04:22:16.133Z,228.14
2023-03-29T04:23:16.212Z,227.94
2023-03-29T04:24:16.308Z,240.81
2023-03-29T04:25:16.297Z,238.00
2023-03-29T04:26:16.308Z,237.02
2023-03-29T04:27:16.352Z,230.34
2023-03-29T04:28:16.434Z,232.04
2023-03-29T04:29:16.510Z,240.81
2023-03-29T04:30:16.576Z,243.99
2023-03-29T04:31:16.699Z,242.52
2023-03-29T04:32:16.749Z,235.85
2023-03-29T04:33:16.815Z,227.80
2023-03-29T04:34:16.935Z,213.46
2023-03-29T04:35:16.963Z,221.98
2023-03-29T04:36:17.034Z,215.03
2023-03-29T04:37:16.956Z,200.81
2023-03-29T04:38:16.960Z,196.06
2023-03-29T04:39:16.919Z,193.10
2023-03-29T04:40:16.912Z,211.08
2023-03-29T04:41:16.910Z,230.06
2023-03-29T04:42:16.881Z,245.46
2023-03-29T04:43:16.915Z,250.00
2023-03-29T04:44:16.844Z,247.04
2023-03-29T04:45:16.903Z,239.47
2023-03-29T04:46:16.897Z,238.58
2023-03-29T04:47:16.916Z,228.47
2023-03-29T04:48:16.936Z,219.90
2023-03-29T04:49:16.989Z,223.83
2023-03-29T04:50:16.988Z,224.91
2023-03-29T04:51:17.045Z,238.44
2023-03-29T04:52:17.096Z,240.71
2023-03-29T04:53:17.147Z,231.23
2023-03-29T04:54:17.178Z,251.17
2023-03-29T04:55:17.169Z,250.02
2023-03-29T04:56:17.209Z,243.77
2023-03-29T04:57:17.255Z,241.11
2023-03-29T04:58:18.155Z,230.70
2023-03-29T04:59:17.229Z,231.11
2023-03-29T05:01:45.118Z,25.00
2023-03-29T05:02:37.566Z,25.00
2023-03-29T05:03:37.488Z,25.00
2023-03-29T05:04:37.523Z,25.00
2023-03-29T05:05:37.457Z,25.00
2023-03-29T05:06:37.432Z,25.00
2023-03-29T05:07:37.434Z,39.95
2023-03-29T05:08:37.437Z,53.41
2023-03-29T05:09:37.405Z,112.09
2023-03-29T05:10:37.442Z,109.04
2023-03-29T05:11:37.414Z,86.63
2023-03-29T05:12:37.454Z,76.77
2023-03-29T05:13:37.429Z,78.70
2023-03-29T05:14:37.377Z,138.24
2023-03-29T05:15:39.043Z,107.27
2023-03-29T05:16:37.414Z,95.17
2023-03-29T05:17:37.376Z,89.07
2023-03-29T05:18:37.425Z,133.17
2023-03-29T05:19:37.378Z,163.13
2023-03-29T05:20:37.359Z,85.88
2023-03-29T05:21:37.331Z,86.55
2023-03-29T05:22:37.333Z,91.93
2023-03-29T05:23:37.416Z,85.74
2023-03-29T05:24:37.353Z,76.06
2023-03-29T05:25:37.317Z,100.05
2023-03-29T05:26:37.350Z,109.58
2023-03-29T05:27:37.332Z,89.99
2023-03-29T05:28:37.366Z,57.32
2023-03-29T05:29:37.282Z,52.98
2023-03-29T05:30:37.305Z,65.97
2023-03-29T05:31:37.331Z,104.72
2023-03-29T05:32:37.330Z,114.62
2023-03-29T05:33:37.382Z,118.96
2023-03-29T05:34:37.297Z,85.55
2023-03-29T05:35:37.326Z,112.32
2023-03-29T05:36:37.287Z,84.22
2023-03-29T05:37:37.356Z,139.09
2023-03-29T05:38:37.725Z,128.20
2023-03-29T05:39:37.793Z,134.44
2023-03-29T05:40:37.256Z,136.48
2023-03-29T05:41:37.248Z,118.86
2023-03-29T05:42:37.229Z,109.00
2023-03-29T05:43:37.263Z,187.46
2023-03-29T05:44:37.722Z,146.38
2023-03-29T05:47:05.176Z,25.00
2023-03-29T05:47:57.377Z,25.00
2023-03-29T05:48:57.555Z,25.00
2023-03-29T05:49:57.445Z,25.00
2023-03-29T05:50:57.386Z,25.00
2023-03-29T05:51:57.350Z,25.00
2023-03-29T05:52:57.423Z,75.43
2023-03-29T05:53:57.325Z,80.54
2023-03-29T05:54:57.293Z,44.21
2023-03-29T05:55:57.304Z,54.40
2023-03-29T05:56:57.398Z,60.53
2023-03-29T05:57:57.367Z,44.97
2023-03-29T05:58:57.367Z,23.69
2023-03-29T05:59:57.499Z,21.63
2023-03-29T06:00:57.478Z,21.71
2023-03-29T06:01:57.496Z,2.05
2023-03-29T06:03:06.466Z,22.54
2023-03-29T06:03:59.328Z,0.00
2023-03-29T06:04:57.656Z,18.28
2023-03-29T06:05:57.523Z,25.09
2023-03-29T06:06:57.617Z,45.78
2023-03-29T06:07:57.519Z,76.45
2023-03-29T06:08:57.487Z,93.45
2023-03-29T06:09:57.548Z,89.14
2023-03-29T06:10:57.481Z,151.76
2023-03-29T06:11:57.510Z,159.12
2023-03-29T06:12:57.607Z,125.59
2023-03-29T06:13:57.568Z,52.48
2023-03-29T06:14:58.040Z,36.33
2023-03-29T06:15:57.673Z,62.63
2023-03-29T06:16:57.775Z,63.65
2023-03-29T06:17:57.801Z,84.68
2023-03-29T06:18:57.820Z,130.54
2023-03-29T06:19:57.980Z,137.39
2023-03-29T06:20:58.014Z,83.48
2023-03-29T06:21:57.943Z,38.05
2023-03-29T06:22:57.947Z,45.35
2023-03-29T06:23:58.044Z,78.12
2023-03-29T06:24:57.958Z,105.55
2023-03-29T06:25:58.007Z,111.85
2023-03-29T06:26:57.970Z,44.31
2023-03-29T06:27:58.016Z,26.22
2023-03-29T06:28:57.988Z,42.12
2023-03-29T06:29:58.043Z,39.16
2023-03-29T06:30:58.148Z,56.41
2023-03-29T06:31:58.090Z,61.07
2023-03-29T06:32:58.175Z,75.58
2023-03-29T06:33:58.030Z,86.97
2023-03-29T06:34:58.593Z,94.31
2023-03-29T06:35:58.162Z,99.89
2023-03-29T06:36:58.585Z,65.55
2023-03-29T06:37:58.140Z,138.56
2023-03-29T06:38:58.251Z,118.00
2023-03-29T06:39:58.567Z,110.90
2023-03-29T06:40:58.464Z,81.87
2023-03-29T06:41:59.029Z,53.47
2023-03-29T06:42:58.232Z,35.99
2023-03-29T06:43:58.242Z,40.86
2023-03-29T06:45:00.255Z,98.80
2023-03-29T06:46:01.249Z,110.29
2023-03-29T06:47:05.870Z,119.33
2023-03-29T06:47:58.771Z,82.64
2023-03-29T06:48:58.777Z,50.55
2023-03-29T06:49:58.713Z,52.33
2023-03-29T06:50:58.583Z,67.42
2023-03-29T06:51:59.423Z,87.35
2023-03-29T06:53:02.463Z,90.22
2023-03-29T06:53:58.300Z,90.44
2023-03-29T06:54:58.261Z,81.79
2023-03-29T06:55:58.281Z,35.40
2023-03-29T06:56:58.287Z,68.28
2023-03-29T06:57:59.114Z,66.37
2023-03-29T06:58:59.561Z,2.85
2023-03-29T07:01:26.128Z,25.00
2023-03-29T07:02:17.978Z,25.00
2023-03-29T07:03:18.003Z,25.00
2023-03-29T07:04:18.255Z,25.00
2023-03-29T07:05:18.029Z,25.00
2023-03-29T07:06:18.613Z,25.00
2023-03-29T07:07:18.056Z,34.60
2023-03-29T07:08:18.022Z,0.00
2023-03-29T07:09:19.565Z,0.00
2023-03-29T07:10:18.169Z,0.00
2023-03-29T07:11:18.091Z,0.00
2023-03-29T07:12:18.158Z,0.00
2023-03-29T07:13:18.160Z,0.00
2023-03-29T07:14:18.198Z,0.00
2023-03-29T07:15:18.258Z,27.87
2023-03-29T07:16:18.319Z,3.76
2023-03-29T07:17:18.320Z,0.00
2023-03-29T07:18:18.456Z,24.38
2023-03-29T07:19:18.500Z,28.78
2023-03-29T07:20:18.562Z,113.23
2023-03-29T07:21:18.505Z,149.30
2023-03-29T07:22:18.580Z,95.20
2023-03-29T07:23:18.608Z,194.09
2023-03-29T07:24:18.648Z,192.18
2023-03-29T07:25:18.699Z,159.44
2023-03-29T07:26:30.006Z,164.03
2023-03-29T07:27:18.781Z,147.86
2023-03-29T07:28:18.696Z,142.04
2023-03-29T07:29:18.697Z,199.69
2023-03-29T07:30:19.155Z,259.73
2023-03-29T07:31:18.737Z,260.53
2023-03-29T07:32:18.759Z,96.34
2023-03-29T07:33:18.851Z,81.80
2023-03-29T07:34:18.706Z,100.32
2023-03-29T07:35:19.124Z,93.68
2023-03-29T07:36:18.740Z,126.67
2023-03-29T07:37:18.723Z,99.53
2023-03-29T07:38:18.751Z,80.76
2023-03-29T07:39:18.835Z,117.33
2023-03-29T07:40:19.050Z,116.46
2023-03-29T07:41:18.868Z,100.42
2023-03-29T07:42:18.876Z,48.05
2023-03-29T07:43:19.003Z,75.87
2023-03-29T07:44:18.987Z,28.00
2023-03-29T07:45:19.606Z,27.33
2023-03-29T07:46:20.180Z,27.41
2023-03-29T07:47:19.183Z,37.65
2023-03-29T07:48:19.225Z,53.48
2023-03-29T07:49:21.004Z,68.37
2023-03-29T07:50:19.639Z,76.14
2023-03-29T07:51:19.196Z,55.85
2023-03-29T07:52:19.133Z,73.08
2023-03-29T07:53:19.183Z,93.20
2023-03-29T07:54:26.740Z,103.79
2023-03-29T07:55:19.134Z,102.44
2023-03-29T07:56:19.158Z,64.06
2023-03-29T07:57:19.175Z,90.25
2023-03-29T07:58:19.194Z,37.82
2023-03-29T07:59:19.124Z,0.00
2023-03-29T08:00:19.157Z,85.92
2023-03-29T08:01:19.902Z,87.10
2023-03-29T08:02:19.114Z,94.28
2023-03-29T08:03:19.185Z,133.00
2023-03-29T08:04:19.188Z,500.00
2023-03-29T08:05:29.251Z,277.17
2023-03-29T08:06:20.045Z,224.48
2023-03-29T08:07:20.101Z,154.80
2023-03-29T08:08:19.091Z,125.67
2023-03-29T08:09:19.092Z,61.67
2023-03-29T08:10:19.056Z,53.06
2023-03-29T08:11:19.070Z,62.25
2023-03-29T08:12:19.007Z,63.09
2023-03-29T08:13:18.980Z,85.09
2023-03-29T08:14:19.023Z,93.17
2023-03-29T08:15:19.614Z,71.96
2023-03-29T08:16:19.021Z,146.84
2023-03-29T08:17:19.062Z,110.64
2023-03-29T08:18:19.029Z,118.60
2023-03-29T08:19:19.208Z,222.95
2023-03-29T08:20:19.172Z,164.58
2023-03-29T08:21:19.648Z,99.16
2023-03-29T08:22:19.093Z,39.98
2023-03-29T08:23:19.143Z,73.04
2023-03-29T08:24:20.900Z,0.00
2023-03-29T08:25:19.565Z,49.02
2023-03-29T08:26:19.364Z,68.98
2023-03-29T08:27:19.313Z,0.00
2023-03-29T08:28:19.286Z,7.35
2023-03-29T08:29:19.343Z,18.31
2023-03-29T08:30:19.377Z,194.80
2023-03-29T08:31:19.398Z,223.93
2023-03-29T08:32:19.423Z,190.26
2023-03-29T08:33:19.396Z,164.60
2023-03-29T08:34:19.423Z,165.71
2023-03-29T08:35:19.602Z,65.63
2023-03-29T08:36:19.454Z,30.19
2023-03-29T08:37:19.446Z,30.83
2023-03-29T08:38:19.395Z,24.46
2023-03-29T08:39:19.699Z,49.90
2023-03-29T08:40:19.672Z,71.76
2023-03-29T08:41:19.462Z,66.61
2023-03-29T08:42:19.456Z,63.41
2023-03-29T08:43:19.674Z,135.17
2023-03-29T08:44:19.502Z,149.66
2023-03-29T08:45:19.525Z,124.15
2023-03-29T08:46:19.532Z,101.26
2023-03-29T08:47:19.562Z,151.22
2023-03-29T08:48:19.486Z,127.05
2023-03-29T08:49:19.495Z,114.05
2023-03-29T08:50:19.562Z,83.41
2023-03-29T08:51:19.488Z,49.45
2023-03-29T08:52:19.485Z,31.13
2023-03-29T08:53:19.495Z,19.50
2023-03-29T08:54:19.521Z,31.66
2023-03-29T08:55:19.561Z,47.91
2023-03-29T08:56:19.427Z,56.97
2023-03-29T08:57:19.541Z,56.30
2023-03-29T08:58:19.568Z,64.07
2023-03-29T08:59:19.501Z,78.93
2023-03-29T09:00:19.633Z,83.99
2023-03-29T09:01:19.629Z,90.77
2023-03-29T09:02:19.712Z,61.88
2023-03-29T09:03:19.754Z,56.86
2023-03-29T09:04:19.732Z,135.09
2023-03-29T09:05:20.162Z,88.03
2023-03-29T09:06:19.834Z,88.87
2023-03-29T09:07:19.909Z,106.13
2023-03-29T09:08:19.870Z,124.16
2023-03-29T09:09:19.960Z,150.16
2023-03-29T09:10:19.949Z,138.07
2023-03-29T09:11:19.976Z,144.24
2023-03-29T09:12:20.041Z,123.01
2023-03-29T09:13:20.142Z,125.52
2023-03-29T09:14:20.095Z,132.02
2023-03-29T09:15:20.090Z,142.72
2023-03-29T09:16:20.197Z,134.39
2023-03-29T09:17:20.112Z,132.15
2023-03-29T09:18:20.181Z,155.59
2023-03-29T09:19:20.137Z,137.55
2023-03-29T09:20:20.616Z,132.70
2023-03-29T09:21:20.226Z,127.87
2023-03-29T09:22:20.244Z,141.53
2023-03-29T09:23:20.290Z,153.68
2023-03-29T09:24:20.330Z,159.89
2023-03-29T09:25:20.609Z,142.20
2023-03-29T09:26:20.397Z,170.33
2023-03-29T09:27:20.374Z,160.85
2023-03-29T09:28:20.388Z,161.87
2023-03-29T09:29:20.390Z,164.69
2023-03-29T09:30:20.554Z,157.53
2023-03-29T09:31:20.481Z,143.11
2023-03-29T09:32:20.417Z,169.55
2023-03-29T09:33:20.427Z,178.50
2023-03-29T09:34:20.433Z,165.73
2023-03-29T09:35:20.600Z,164.32
2023-03-29T09:36:20.580Z,145.40
2023-03-29T09:37:20.616Z,131.48
2023-03-29T09:38:20.680Z,158.02
2023-03-29T09:39:20.973Z,150.33
2023-03-29T09:40:21.777Z,183.07
2023-03-29T09:41:20.853Z,166.00
2023-03-29T09:42:20.988Z,137.88
2023-03-29T09:43:20.641Z,110.00
2023-03-29T09:44:30.329Z,154.63
2023-03-29T09:45:22.036Z,154.85
2023-03-29T09:46:20.701Z,156.11
2023-03-29T09:47:20.653Z,176.73
2023-03-29T09:48:20.648Z,183.29
2023-03-29T09:49:20.700Z,182.26
2023-03-29T09:50:30.730Z,160.02
2023-03-29T09:51:21.648Z,130.39
2023-03-29T09:52:20.658Z,127.18
2023-03-29T09:53:20.693Z,65.02
2023-03-29T09:54:20.776Z,32.71
2023-03-29T09:55:20.930Z,24.76
2023-03-29T09:56:20.854Z,39.84
2023-03-29T09:57:20.958Z,157.53
2023-03-29T09:58:20.928Z,65.11
2023-03-29T09:59:20.986Z,22.72
2023-03-29T10:00:21.023Z,30.17
2023-03-29T10:01:21.731Z,18.81
2023-03-29T10:02:22.727Z,18.06
2023-03-29T10:03:21.173Z,128.27
2023-03-29T10:04:21.620Z,116.72
2023-03-29T10:05:20.972Z,63.10
2023-03-29T10:06:21.051Z,46.56
2023-03-29T10:07:20.925Z,42.97
2023-03-29T10:08:21.024Z,25.42
2023-03-29T10:09:21.985Z,67.94
2023-03-29T10:10:20.996Z,40.78
2023-03-29T10:11:20.953Z,38.04
2023-03-29T10:12:20.988Z,64.69
2023-03-29T10:13:20.907Z,36.38
2023-03-29T10:14:20.918Z,24.92
2023-03-29T10:15:29.166Z,32.19
2023-03-29T10:16:22.029Z,3.36
2023-03-29T10:17:20.979Z,0.00
2023-03-29T10:18:20.958Z,0.00
2023-03-29T10:19:20.845Z,0.00
2023-03-29T10:20:20.949Z,0.00
2023-03-29T10:21:21.014Z,0.00
2023-03-29T10:22:20.843Z,0.00
2023-03-29T10:23:20.818Z,6.99
2023-03-29T10:24:20.808Z,10.82
2023-03-29T10:25:20.850Z,26.39
2023-03-29T10:26:21.169Z,39.28
2023-03-29T10:27:20.917Z,23.97
2023-03-29T10:28:20.876Z,25.17
2023-03-29T10:29:21.021Z,20.76
2023-03-29T10:30:20.927Z,32.90
2023-03-29T10:31:21.144Z,37.94
2023-03-29T10:32:20.984Z,57.22
2023-03-29T10:33:20.970Z,66.21
2023-03-29T10:34:21.094Z,57.78
2023-03-29T10:35:21.058Z,57.89
2023-03-29T10:36:21.097Z,44.63
2023-03-29T10:37:21.207Z,37.23
2023-03-29T10:38:21.371Z,41.30
2023-03-29T10:39:21.354Z,40.45
2023-03-29T10:40:21.370Z,19.05
2023-03-29T10:41:21.201Z,26.22
2023-03-29T10:42:21.258Z,16.13
2023-03-29T10:43:21.285Z,20.84
2023-03-29T10:44:21.292Z,27.27
2023-03-29T10:45:21.258Z,39.73
2023-03-29T10:46:21.397Z,56.17
2023-03-29T10:47:22.096Z,56.68
2023-03-29T10:48:21.317Z,51.13
2023-03-29T10:49:21.314Z,54.42
2023-03-29T10:50:21.665Z,47.51
2023-03-29T10:51:21.444Z,65.29
2023-03-29T10:52:21.499Z,69.25
2023-03-29T10:53:21.472Z,64.75
2023-03-29T10:54:21.503Z,101.66
2023-03-29T10:55:21.536Z,93.65
2023-03-29T10:56:21.592Z,95.35
2023-03-29T10:57:22.802Z,126.80
2023-03-29T10:58:21.592Z,124.33
2023-03-29T10:59:21.613Z,72.19
2023-03-29T11:00:21.633Z,66.82
2023-03-29T11:01:21.801Z,54.73
2023-03-29T11:02:22.442Z,58.91
2023-03-29T11:03:21.955Z,64.57
2023-03-29T11:04:21.733Z,89.02
2023-03-29T11:05:21.746Z,59.31
2023-03-29T11:06:21.780Z,49.73
2023-03-29T11:07:21.751Z,54.18
2023-03-29T11:08:21.818Z,48.77
2023-03-29T11:09:21.798Z,53.45
2023-03-29T11:10:21.704Z,42.91
2023-03-29T11:11:21.865Z,58.47
2023-03-29T11:12:21.885Z,99.22
2023-03-29T11:13:21.889Z,51.33
2023-03-29T11:14:21.832Z,56.30
2023-03-29T11:15:21.995Z,55.95
2023-03-29T11:16:33.634Z,59.62
2023-03-29T11:17:22.087Z,59.77
2023-03-29T11:18:21.999Z,64.24
2023-03-29T11:19:21.938Z,62.25
2023-03-29T11:20:21.966Z,59.72
2023-03-29T11:21:22.111Z,67.03
2023-03-29T11:22:22.652Z,87.07
2023-03-29T11:23:21.905Z,90.74
2023-03-29T11:24:23.142Z,56.91
2023-03-29T11:25:22.074Z,60.93
2023-03-29T11:26:22.219Z,50.64
2023-03-29T11:27:22.019Z,71.72
2023-03-29T11:28:21.984Z,78.20
2023-03-29T11:29:22.691Z,96.53
2023-03-29T11:30:23.290Z,98.66
2023-03-29T11:31:22.277Z,126.57
2023-03-29T11:32:22.175Z,129.06
2023-03-29T11:33:21.979Z,99.87
2023-03-29T11:34:22.004Z,105.21
2023-03-29T11:35:21.968Z,126.74
2023-03-29T11:36:22.122Z,125.39
2023-03-29T11:37:21.911Z,116.83
2023-03-29T11:38:21.919Z,107.19
2023-03-29T11:39:21.968Z,80.44
2023-03-29T11:40:22.715Z,85.53
2023-03-29T11:41:22.071Z,75.86
2023-03-29T11:42:21.937Z,96.14
2023-03-29T11:43:21.841Z,104.24
2023-03-29T11:44:21.839Z,91.91
2023-03-29T11:45:21.769Z,91.35
2023-03-29T11:46:22.167Z,98.79
2023-03-29T11:47:21.870Z,144.59
2023-03-29T11:48:21.852Z,130.28
2023-03-29T11:49:21.809Z,101.53
2023-03-29T11:50:21.794Z,122.68
2023-03-29T11:51:21.823Z,111.24
2023-03-29T11:52:21.793Z,114.83
2023-03-29T11:53:21.798Z,112.19
2023-03-29T11:54:22.568Z,153.08
2023-03-29T11:55:21.916Z,122.42
2023-03-29T11:56:21.910Z,143.20
2023-03-29T11:57:21.995Z,85.51
2023-03-29T11:58:21.921Z,53.69
2023-03-29T11:59:21.893Z,59.47
2023-03-29T12:00:21.967Z,63.24
2023-03-29T12:01:21.958Z,43.95
2023-03-29T12:02:22.058Z,30.99
2023-03-29T12:03:22.198Z,30.02
2023-03-29T12:04:22.030Z,53.48
2023-03-29T12:05:29.660Z,65.46
2023-03-29T12:06:22.000Z,62.65
2023-03-29T12:07:22.009Z,60.78
2023-03-29T12:08:21.980Z,66.89
2023-03-29T12:09:21.977Z,77.67
2023-03-29T12:10:21.975Z,85.30
2023-03-29T12:11:21.988Z,88.38
2023-03-29T12:12:21.979Z,90.85
2023-03-29T12:13:22.016Z,81.83
2023-03-29T12:14:21.898Z,102.97
2023-03-29T12:15:21.948Z,101.16
2023-03-29T12:16:22.064Z,93.47
2023-03-29T12:17:22.013Z,86.81
2023-03-29T12:18:21.951Z,105.63
2023-03-29T12:19:21.941Z,98.67
2023-03-29T12:20:21.921Z,68.17
2023-03-29T12:21:21.971Z,70.33
2023-03-29T12:22:22.008Z,87.40
2023-03-29T12:23:21.924Z,73.85
2023-03-29T12:24:22.119Z,86.60
2023-03-29T12:25:23.265Z,88.91
2023-03-29T12:26:22.008Z,199.88
2023-03-29T12:27:22.046Z,126.89
2023-03-29T12:28:22.047Z,134.21
2023-03-29T12:29:22.089Z,167.92
2023-03-29T12:30:22.066Z,150.21
2023-03-29T12:31:22.253Z,172.00
2023-03-29T12:32:22.212Z,148.80
2023-03-29T12:33:22.141Z,113.89
2023-03-29T12:34:22.201Z,101.72
2023-03-29T12:35:22.153Z,106.24
2023-03-29T12:36:22.168Z,133.23
2023-03-29T12:37:22.196Z,110.26
2023-03-29T12:38:22.164Z,129.05
2023-03-29T12:39:22.209Z,237.89
2023-03-29T12:40:22.240Z,217.14
2023-03-29T12:41:22.343Z,208.14
2023-03-29T12:42:22.353Z,177.90